EDQM

Hof-Plauen Airport

Hof, Germany
METAR EDQM 241150Z 04017KT 9999 FEW027 M03/M11 Q1021
Observed Flight Rules
Feb-24 @ 11:50 UTC (32 minutes ago) Visual Flight Rules
Wind Visibility Clouds
40° at 17 knots 10,000+ meters
  • Few at 2,700' AGL
Temperatures Readings
Current -3°C / 27°F
Dewpoint -11°C / 12°F
Humidity 54%
Altimeter 30.15" Hg
Pressure 1021 hPa
Elevation 568
METAR EDQM 241150Z 04017KT 9999 FEW027 M03/M11 Q1021
Observed Flight Rules
Feb-24 @ 11:50 UTC
(32 minutes ago)
VFR
Wind Visibility
40° at 17 knots 10,000+ meters
Clouds
  • Few at 2,700' AGL
Temperature Dewpoint
-3°C / 27°F -11°C / 12°F
Humidity Altimeter Pressure
54% 30.15" Hg 1021 hPa